Aviation Digital Data Service (ADDS)

Output produced by METARs form (0702 UTC 24 March 2019)
found at http://www.aviationweather.gov/metar/data/
 
PHTO 240653Z 23004KT 10SM BKN028 BKN036 OVC055 22/17 A3013 RMK AO2 SLP201 T02170172
PHTO 240534Z 2406/2506 VRB05KT P6SM VCSH SCT025 BKN040 
     TEMPO 2406/2408 5SM SHRA BKN025 
     FM241400 VRB05KT 4SM SHRA BR BKN025 OVC040 
     FM242200 10008KT P6SM VCSH SCT025 BKN045 
     FM250500 VRB05KT P6SM VCSH SCT025 OVC040
       
PHNL 240653Z 05007KT 10SM FEW026 SCT040 24/17 A3011 RMK AO2 SLP196 T02390167
PHNL 240534Z 2406/2512 05010KT P6SM FEW025 SCT050 
     FM242100 07012G20KT P6SM FEW030 SCT050 
     FM250500 06008KT P6SM FEW025 SCT050
       
PHOG 240654Z 04012KT 10SM FEW055 23/18 A3011 RMK AO2 SLP200 T02330178
PHOG 240534Z 2406/2506 05012KT P6SM VCSH FEW030 SCT050 
     FM241000 06007KT P6SM FEW030 SCT050 
     FM242200 06015G22KT P6SM FEW035 SCT050 
     FM250500 06009KT P6SM FEW030 FEW050 AMD LTD TO VIS AND WIND 2409/2416
       
PHKO 240653Z 15007KT 10SM BKN055 24/18 A3006 RMK AO2 SLP178 T02390178
PHKO 240534Z 2406/2506 VRB05KT P6SM FEW035 BKN050 
     FM242100 24008KT P6SM FEW035 BKN050 
     FM250300 VRB05KT P6SM FEW035 BKN050
       
PHJR 240653Z VRB05KT 10SM CLR 22/16 A3013 RMK AO2 SLP208 T02220161
PHJR 240534Z 2406/2506 05005KT P6SM FEW050 
     FM241900 09008KT P6SM FEW030 SCT050 
     FM250500 07005KT P6SM FEW025 FEW050
       
PHMK 240654Z AUTO 05008KT 10SM FEW017 SCT022 BKN029 22/19 A3012 RMK AO2 RAE0555B35E50 SLP203 P0000 T02170194 TSNO
PHMK 240534Z 2406/2506 04010G18KT P6SM VCSH SCT025 BKN045 
     TEMPO 2406/2408 BKN025 
     FM242000 05012G20KT P6SM FEW025 SCT045 
     FM250500 05009KT P6SM FEW025
       
PHNY 240656Z AUTO 04007KT 10SM FEW026 OVC034 20/18 A3015 RMK AO2 SLP191 T02000183
PHNY 240534Z 2406/2506 05008KT P6SM FEW025 
     FM242200 05014G22KT P6SM VCSH FEW020 BKN035 
     FM250500 05008KT P6SM FEW025
       
PHLI 240653Z 03018KT 10SM SCT015 BKN020 BKN028 22/19 A3015 RMK AO2 RAB0555E09 SLP207 P0000 T02220194
PHLI 240534Z 2406/2506 03016KT P6SM VCSH SCT020 BKN025 OVC050 
     TEMPO 2406/2409 4SM SHRA BR BKN020 OVC040 
     FM242100 06014G20KT P6SM VCSH SCT025 BKN050